createdAt,value
2023-02-06T00:00:26.031Z,70.03
2023-02-06T00:02:53.407Z,69.71
2023-02-06T00:05:22.156Z,69.60
2023-02-06T00:07:49.575Z,70.22
2023-02-06T00:10:17.043Z,70.26
2023-02-06T00:12:44.480Z,70.01
2023-02-06T00:15:12.038Z,69.06
2023-02-06T00:17:39.506Z,69.89
2023-02-06T00:20:09.005Z,69.18
2023-02-06T00:22:37.794Z,69.08
2023-02-06T00:25:06.280Z,69.19
2023-02-06T00:27:34.118Z,69.47
2023-02-06T00:30:01.723Z,69.68
2023-02-06T00:32:29.203Z,70.26
2023-02-06T00:34:56.675Z,69.50
2023-02-06T00:37:24.199Z,69.12
2023-02-06T00:39:53.027Z,68.19
2023-02-06T00:42:20.653Z,69.11
2023-02-06T00:44:48.044Z,69.07
2023-02-06T00:47:15.519Z,69.05
2023-02-06T00:49:42.976Z,68.65
2023-02-06T00:52:10.414Z,68.24
2023-02-06T00:54:37.864Z,68.46
2023-02-06T00:57:06.658Z,69.52
2023-02-06T00:59:34.136Z,69.27
2023-02-06T01:02:01.663Z,68.36
2023-02-06T01:04:29.120Z,69.26
2023-02-06T01:06:56.506Z,68.63
2023-02-06T01:09:23.902Z,70.51
2023-02-06T01:11:51.544Z,70.87
2023-02-06T01:14:20.316Z,69.74
2023-02-06T01:16:47.752Z,69.89
2023-02-06T01:19:15.169Z,69.84
2023-02-06T01:21:42.640Z,69.55
2023-02-06T01:24:10.037Z,70.00
2023-02-06T01:26:37.484Z,70.28
2023-02-06T01:29:05.109Z,69.40
2023-02-06T01:31:34.653Z,70.04
2023-02-06T01:34:02.062Z,70.08
2023-02-06T01:36:30.151Z,69.99
2023-02-06T01:38:57.601Z,71.28
2023-02-06T01:41:25.097Z,71.11
2023-02-06T01:44:11.627Z,70.50
2023-02-06T01:46:41.840Z,69.51
2023-02-06T01:49:12.652Z,70.91
2023-02-06T01:51:41.240Z,70.39
2023-02-06T01:54:10.541Z,70.65
2023-02-06T01:56:43.860Z,70.74
2023-02-06T01:59:12.704Z,71.06
2023-02-06T02:01:41.978Z,72.21
2023-02-06T02:04:15.833Z,70.97
2023-02-06T02:06:43.328Z,71.49
2023-02-06T02:09:10.744Z,71.15
2023-02-06T02:11:41.793Z,70.86
2023-02-06T02:14:13.679Z,71.07
2023-02-06T02:16:52.306Z,71.35
2023-02-06T02:19:50.910Z,70.74
2023-02-06T02:22:39.685Z,70.71
2023-02-06T02:25:25.557Z,70.87
2023-02-06T02:28:12.725Z,69.91
2023-02-06T02:31:07.974Z,70.38
2023-02-06T02:34:01.632Z,70.74
2023-02-06T02:36:35.897Z,70.02
2023-02-06T02:39:12.941Z,70.22
2023-02-06T02:41:45.884Z,69.81
2023-02-06T02:44:21.090Z,68.75
2023-02-06T02:46:52.435Z,70.31
2023-02-06T02:49:25.283Z,71.18
2023-02-06T02:51:54.101Z,70.27
2023-02-06T02:54:21.571Z,68.42
2023-02-06T02:56:49.301Z,68.10
2023-02-06T02:59:23.701Z,67.83
2023-02-06T03:01:57.135Z,67.91
2023-02-06T03:04:28.640Z,70.11
2023-02-06T03:07:09.437Z,68.76
2023-02-06T03:09:49.023Z,68.08
2023-02-06T03:12:22.998Z,68.20
2023-02-06T03:14:55.860Z,69.34
2023-02-06T03:17:33.962Z,67.61
2023-02-06T03:20:03.577Z,67.23
2023-02-06T03:22:35.735Z,67.48
2023-02-06T03:25:03.967Z,68.04
2023-02-06T03:27:33.262Z,70.45
2023-02-06T03:30:03.962Z,67.24
2023-02-06T03:32:35.296Z,66.23
2023-02-06T03:35:08.060Z,68.78
2023-02-06T03:37:38.238Z,66.72
2023-02-06T03:40:08.580Z,67.18
2023-02-06T03:42:40.511Z,66.60
2023-02-06T03:45:14.122Z,66.06
2023-02-06T03:47:44.353Z,66.06
2023-02-06T03:50:13.336Z,65.50
2023-02-06T03:52:46.289Z,64.77
2023-02-06T03:55:15.901Z,65.18
2023-02-06T03:57:48.573Z,65.59
2023-02-06T04:00:16.793Z,65.30
2023-02-06T04:02:47.469Z,65.71
2023-02-06T04:05:15.051Z,64.78
2023-02-06T04:07:44.265Z,64.02
2023-02-06T04:10:12.101Z,64.56
2023-02-06T04:12:39.833Z,64.52
2023-02-06T04:15:07.996Z,64.47
2023-02-06T04:17:57.540Z,64.66
2023-02-06T04:20:22.899Z,65.49
2023-02-06T04:22:51.713Z,65.53
2023-02-06T04:25:19.361Z,66.57
2023-02-06T04:27:46.898Z,67.38
2023-02-06T04:30:15.672Z,66.62
2023-02-06T04:32:43.162Z,66.94
2023-02-06T04:35:11.199Z,66.48
2023-02-06T04:37:38.673Z,67.87
2023-02-06T04:40:08.433Z,68.67
2023-02-06T04:42:35.862Z,69.29
2023-02-06T04:45:03.275Z,70.51
2023-02-06T04:47:30.735Z,70.21
2023-02-06T04:49:58.122Z,71.06
2023-02-06T04:52:25.705Z,71.66
2023-02-06T04:54:53.141Z,72.39
2023-02-06T04:57:21.885Z,74.13
2023-02-06T04:59:49.313Z,74.26
2023-02-06T05:02:16.770Z,74.51
2023-02-06T05:04:44.244Z,76.91
2023-02-06T05:07:11.740Z,76.51
2023-02-06T05:09:39.184Z,75.88
2023-02-06T05:12:06.928Z,76.81
2023-02-06T05:14:35.720Z,77.53
2023-02-06T05:17:03.142Z,77.67
2023-02-06T05:19:30.530Z,76.33
2023-02-06T05:21:57.982Z,77.14
2023-02-06T05:24:25.483Z,76.74
2023-02-06T05:26:52.961Z,76.93
2023-02-06T05:29:20.378Z,76.38
2023-02-06T05:31:49.125Z,76.69
2023-02-06T05:34:16.525Z,77.04
2023-02-06T05:36:44.015Z,77.43
2023-02-06T05:39:11.437Z,77.75
2023-02-06T05:41:38.931Z,77.22
2023-02-06T05:44:06.557Z,77.91
2023-02-06T05:46:34.070Z,77.71
2023-02-06T05:49:02.874Z,78.02
2023-02-06T05:51:30.242Z,77.77
2023-02-06T05:53:57.679Z,78.31
2023-02-06T05:56:25.103Z,77.75
2023-02-06T05:58:52.571Z,78.03
2023-02-06T06:01:20.269Z,78.34
2023-02-06T06:03:47.808Z,79.42
2023-02-06T06:06:16.677Z,79.97
2023-02-06T06:08:44.153Z,80.88
2023-02-06T06:11:11.579Z,79.20
2023-02-06T06:13:39.016Z,79.73
2023-02-06T06:16:06.709Z,79.02
2023-02-06T06:18:34.228Z,79.24
2023-02-06T06:21:01.626Z,78.88
2023-02-06T06:23:30.429Z,81.15
2023-02-06T06:25:57.882Z,81.09
2023-02-06T06:28:25.335Z,81.22
2023-02-06T06:30:52.744Z,81.66
2023-02-06T06:33:20.142Z,82.49
2023-02-06T06:35:47.574Z,84.40
2023-02-06T06:38:15.362Z,83.09
2023-02-06T06:40:44.127Z,82.54
2023-02-06T06:43:11.574Z,82.32
2023-02-06T06:45:39.408Z,81.68
2023-02-06T06:48:07.116Z,81.61
2023-02-06T06:50:34.583Z,82.01
2023-02-06T06:53:02.020Z,80.64
2023-02-06T06:55:29.557Z,81.22
2023-02-06T06:57:58.401Z,81.43
2023-02-06T07:00:25.969Z,81.29
2023-02-06T07:02:53.495Z,82.16
2023-02-06T07:05:21.083Z,80.82
2023-02-06T07:07:48.542Z,81.10
2023-02-06T07:10:16.337Z,80.99
2023-02-06T07:12:43.765Z,81.77
2023-02-06T07:15:12.547Z,81.82
2023-02-06T07:17:40.072Z,82.84
2023-02-06T07:20:08.088Z,83.43
2023-02-06T07:22:35.493Z,82.35
2023-02-06T07:25:02.955Z,82.08
2023-02-06T07:27:30.453Z,81.82
2023-02-06T07:29:57.866Z,81.52
2023-02-06T07:32:26.723Z,81.57
2023-02-06T07:34:54.113Z,82.63
2023-02-06T07:37:21.532Z,82.47
2023-02-06T07:39:48.957Z,82.56
2023-02-06T07:42:16.381Z,81.78
2023-02-06T07:44:43.781Z,82.09
2023-02-06T07:47:11.492Z,82.73
2023-02-06T07:49:40.297Z,82.53
2023-02-06T07:52:07.791Z,83.16
2023-02-06T07:54:35.220Z,83.15
2023-02-06T07:57:02.695Z,83.10
2023-02-06T07:59:30.123Z,81.77
2023-02-06T08:01:57.537Z,81.88
2023-02-06T08:04:24.977Z,82.92
2023-02-06T08:06:53.714Z,82.37
2023-02-06T08:09:21.137Z,83.97
2023-02-06T08:11:48.612Z,82.49
2023-02-06T08:14:16.063Z,83.16
2023-02-06T08:16:43.710Z,81.99
2023-02-06T08:19:12.311Z,82.56
2023-02-06T08:21:40.008Z,81.36
2023-02-06T08:24:12.149Z,81.06
2023-02-06T08:26:40.095Z,80.87
2023-02-06T08:29:08.725Z,79.87
2023-02-06T08:31:38.660Z,79.23
2023-02-06T08:34:06.969Z,81.18
2023-02-06T08:36:35.126Z,81.53
2023-02-06T08:39:04.536Z,82.00
2023-02-06T08:41:37.016Z,80.93
2023-02-06T08:44:07.137Z,82.63
2023-02-06T08:46:35.187Z,81.48
2023-02-06T08:49:04.935Z,84.09
2023-02-06T08:51:32.991Z,83.00
2023-02-06T08:54:02.132Z,83.17
2023-02-06T08:56:34.036Z,83.69
2023-02-06T08:59:02.033Z,83.27
2023-02-06T09:01:31.570Z,83.84
2023-02-06T09:04:03.806Z,83.53
2023-02-06T09:06:32.027Z,82.75
2023-02-06T09:08:59.430Z,83.97
2023-02-06T09:11:27.627Z,84.12
2023-02-06T09:13:57.976Z,87.95
2023-02-06T09:16:26.414Z,87.75
2023-02-06T09:18:54.676Z,89.60
2023-02-06T09:21:23.937Z,89.56
2023-02-06T09:23:53.419Z,88.23
2023-02-06T09:26:23.252Z,86.99
2023-02-06T09:28:53.007Z,86.48
2023-02-06T09:31:22.061Z,88.22
2023-02-06T09:33:49.628Z,91.42
2023-02-06T09:36:19.693Z,89.55
2023-02-06T09:38:49.053Z,89.34
2023-02-06T09:41:19.078Z,91.13
2023-02-06T09:43:51.577Z,89.49
2023-02-06T09:46:26.861Z,88.09
2023-02-06T09:48:56.258Z,91.31
2023-02-06T09:51:31.646Z,91.37
2023-02-06T09:54:06.920Z,91.41
2023-02-06T09:56:40.218Z,91.07
2023-02-06T09:59:17.080Z,93.04
2023-02-06T10:01:53.372Z,95.02
2023-02-06T10:04:35.184Z,96.51
2023-02-06T10:07:15.621Z,94.87
2023-02-06T10:09:48.950Z,95.84
2023-02-06T10:12:24.746Z,96.84
2023-02-06T10:14:56.666Z,98.62
2023-02-06T10:17:30.044Z,98.50
2023-02-06T10:20:03.192Z,97.93
2023-02-06T10:22:38.732Z,98.02
2023-02-06T10:25:19.188Z,97.82
2023-02-06T10:27:50.295Z,96.21
2023-02-06T10:30:20.911Z,95.63
2023-02-06T10:33:00.048Z,93.86
2023-02-06T10:35:40.325Z,95.90
2023-02-06T10:38:28.242Z,95.86
2023-02-06T10:41:04.421Z,95.93
2023-02-06T10:43:40.427Z,94.60
2023-02-06T10:46:28.288Z,96.01
2023-02-06T10:49:03.426Z,98.38
2023-02-06T10:51:33.667Z,98.81
2023-02-06T10:54:04.045Z,96.37
2023-02-06T10:56:36.686Z,96.57
2023-02-06T10:59:07.977Z,96.03
2023-02-06T11:01:37.908Z,94.78
2023-02-06T11:04:14.958Z,93.45
2023-02-06T11:06:45.918Z,93.35
2023-02-06T11:09:13.691Z,93.33
2023-02-06T11:11:43.093Z,93.08
2023-02-06T11:14:16.796Z,93.74
2023-02-06T11:16:45.394Z,92.75
2023-02-06T11:19:18.522Z,95.73
2023-02-06T11:21:57.778Z,95.07
2023-02-06T11:24:25.998Z,94.28
2023-02-06T11:26:57.267Z,93.62
2023-02-06T11:29:28.292Z,94.47
2023-02-06T11:31:59.235Z,95.70
2023-02-06T11:34:32.253Z,96.09
2023-02-06T11:37:02.491Z,92.42
2023-02-06T11:39:32.395Z,92.83
2023-02-06T11:42:05.334Z,94.05
2023-02-06T11:44:40.928Z,92.20
2023-02-06T11:47:21.748Z,94.26
2023-02-06T11:49:50.483Z,94.30
2023-02-06T11:52:30.143Z,94.78
2023-02-06T11:55:02.739Z,97.12
2023-02-06T11:57:31.892Z,98.26
2023-02-06T12:00:01.557Z,97.02
2023-02-06T12:02:32.551Z,98.12
2023-02-06T12:05:12.775Z,99.19
2023-02-06T12:07:45.214Z,99.24
2023-02-06T12:10:15.949Z,99.50
2023-02-06T12:12:47.100Z,99.80
2023-02-06T12:15:43.633Z,100.00
2023-02-06T12:18:10.663Z,100.00
2023-02-06T12:20:48.478Z,99.80
2023-02-06T12:23:21.697Z,97.03
2023-02-06T12:25:51.131Z,99.29
2023-02-06T12:28:22.095Z,98.67
2023-02-06T12:30:55.763Z,96.49
2023-02-06T12:33:33.288Z,98.44
2023-02-06T12:36:07.957Z,95.82
2023-02-06T12:38:43.733Z,96.55
2023-02-06T12:41:24.823Z,97.70
2023-02-06T12:43:57.050Z,96.91
2023-02-06T12:46:28.161Z,94.87
2023-02-06T12:49:02.164Z,96.87
2023-02-06T12:51:37.106Z,97.30
2023-02-06T12:54:12.225Z,96.85
2023-02-06T12:56:43.605Z,98.20
2023-02-06T12:59:57.656Z,95.05
2023-02-06T13:02:48.963Z,89.02
2023-02-06T13:05:22.093Z,87.36
2023-02-06T13:07:52.573Z,89.08
2023-02-06T13:10:21.738Z,89.17
2023-02-06T13:12:55.387Z,88.55
2023-02-06T13:15:25.934Z,90.87
2023-02-06T13:17:55.458Z,90.71
2023-02-06T13:20:25.298Z,90.56
2023-02-06T13:22:56.118Z,89.50
2023-02-06T13:25:47.508Z,90.76
2023-02-06T13:28:41.299Z,87.96
2023-02-06T13:31:22.974Z,88.70
2023-02-06T13:33:53.653Z,90.99
2023-02-06T13:36:28.525Z,90.61
2023-02-06T13:38:58.159Z,91.07
2023-02-06T13:41:31.698Z,91.19
2023-02-06T13:44:03.393Z,89.94
2023-02-06T13:46:57.627Z,88.56
2023-02-06T13:49:59.213Z,89.14
2023-02-06T13:52:36.324Z,87.60
2023-02-06T13:55:18.506Z,86.11
2023-02-06T13:58:04.858Z,86.25
2023-02-06T14:00:33.984Z,83.44
2023-02-06T14:03:08.049Z,83.21
2023-02-06T14:05:55.684Z,84.27
2023-02-06T14:08:30.842Z,87.87
2023-02-06T14:11:20.124Z,90.47
2023-02-06T14:14:17.290Z,91.39
2023-02-06T14:16:50.385Z,90.71
2023-02-06T14:19:26.481Z,86.80
2023-02-06T14:22:04.103Z,85.18
2023-02-06T14:24:47.961Z,86.48
2023-02-06T14:27:31.465Z,86.85
2023-02-06T14:30:15.698Z,89.60
2023-02-06T14:32:49.908Z,88.53
2023-02-06T14:35:32.494Z,87.46
2023-02-06T14:38:23.972Z,88.34
2023-02-06T14:40:53.513Z,86.18
2023-02-06T14:43:26.611Z,87.17
2023-02-06T14:46:06.939Z,87.15
2023-02-06T14:48:40.955Z,85.60
2023-02-06T14:51:19.075Z,85.27
2023-02-06T14:53:53.251Z,86.05
2023-02-06T14:56:29.222Z,85.89
2023-02-06T14:58:58.099Z,85.10
2023-02-06T15:01:28.643Z,85.65
2023-02-06T15:04:10.525Z,85.16
2023-02-06T15:06:39.890Z,85.49
2023-02-06T15:09:08.626Z,86.75
2023-02-06T15:11:36.399Z,85.94
2023-02-06T15:14:08.963Z,87.58
2023-02-06T15:16:46.865Z,87.71
2023-02-06T15:19:19.906Z,87.32
2023-02-06T15:21:47.951Z,87.99
2023-02-06T15:24:34.187Z,87.65
2023-02-06T15:27:08.807Z,88.50
2023-02-06T15:29:38.195Z,86.21
2023-02-06T15:32:08.565Z,88.54
2023-02-06T15:34:36.364Z,87.77
2023-02-06T15:37:22.712Z,88.17
2023-02-06T15:39:51.020Z,87.98
2023-02-06T15:42:20.627Z,85.76
2023-02-06T15:44:50.755Z,84.48
2023-02-06T15:47:20.237Z,85.33
2023-02-06T15:49:50.053Z,85.54
2023-02-06T15:52:34.208Z,85.52
2023-02-06T15:55:01.986Z,88.45
2023-02-06T15:57:33.158Z,89.49
2023-02-06T16:00:02.965Z,85.72
2023-02-06T16:02:34.060Z,86.05
2023-02-06T16:05:03.481Z,87.44
2023-02-06T16:07:33.540Z,88.24
2023-02-06T16:10:06.016Z,87.16
2023-02-06T16:12:35.286Z,86.71
2023-02-06T16:15:25.177Z,87.74
2023-02-06T16:17:52.802Z,86.48
2023-02-06T16:20:33.190Z,89.32
2023-02-06T16:23:21.688Z,89.06
2023-02-06T16:25:59.704Z,88.24
2023-02-06T16:28:28.283Z,89.85
2023-02-06T16:30:59.563Z,91.82
2023-02-06T16:33:35.013Z,89.93
2023-02-06T16:36:06.260Z,86.56
2023-02-06T16:38:34.312Z,87.02
2023-02-06T16:41:02.071Z,87.96
2023-02-06T16:43:31.612Z,88.03
2023-02-06T16:46:02.761Z,86.19
2023-02-06T16:48:30.226Z,86.23
2023-02-06T16:50:57.726Z,86.58
2023-02-06T16:53:26.638Z,85.03
2023-02-06T16:55:54.184Z,86.91
2023-02-06T16:58:24.228Z,85.90
2023-02-06T17:00:52.433Z,86.78
2023-02-06T17:03:21.338Z,85.97
2023-02-06T17:05:52.155Z,85.78
2023-02-06T17:08:22.318Z,83.98
2023-02-06T17:10:49.889Z,84.88
2023-02-06T17:13:19.474Z,86.90
2023-02-06T17:15:48.062Z,84.29
2023-02-06T17:18:18.167Z,83.03
2023-02-06T17:20:48.695Z,82.41
2023-02-06T17:23:16.585Z,84.33
2023-02-06T17:25:46.265Z,82.70
2023-02-06T17:28:16.693Z,83.12
2023-02-06T17:30:45.652Z,85.80
2023-02-06T17:33:13.395Z,87.28
2023-02-06T17:35:40.823Z,85.69
2023-02-06T17:38:10.672Z,88.22
2023-02-06T17:40:40.254Z,88.25
2023-02-06T17:43:07.992Z,88.48
2023-02-06T17:45:38.079Z,87.04
2023-02-06T17:48:06.641Z,85.22
2023-02-06T17:50:36.815Z,84.34
2023-02-06T17:53:05.870Z,84.42
2023-02-06T17:55:36.516Z,82.23
2023-02-06T17:58:04.229Z,85.77
2023-02-06T18:00:32.037Z,85.40
2023-02-06T18:03:00.901Z,83.79
2023-02-06T18:05:28.801Z,82.94
2023-02-06T18:07:56.269Z,83.44
2023-02-06T18:10:25.978Z,84.31
2023-02-06T18:12:54.819Z,84.69
2023-02-06T18:15:22.323Z,84.41
2023-02-06T18:17:49.875Z,83.70
2023-02-06T18:20:17.775Z,84.23
2023-02-06T18:22:45.324Z,84.04
2023-02-06T18:25:14.931Z,83.57
2023-02-06T18:27:45.479Z,83.50
2023-02-06T18:30:17.128Z,82.76
2023-02-06T18:32:44.763Z,82.03
2023-02-06T18:35:12.379Z,83.70
2023-02-06T18:37:39.815Z,82.41
2023-02-06T18:40:07.836Z,82.66
2023-02-06T18:42:58.150Z,82.13
2023-02-06T18:45:31.159Z,82.41
2023-02-06T18:47:58.595Z,81.17
2023-02-06T18:50:26.005Z,81.57
2023-02-06T18:52:53.430Z,82.49
2023-02-06T18:55:21.279Z,81.72
2023-02-06T18:57:49.491Z,81.80
2023-02-06T19:00:19.082Z,81.87
2023-02-06T19:02:48.183Z,81.91
2023-02-06T19:05:16.140Z,81.78
2023-02-06T19:07:43.566Z,81.13
2023-02-06T19:10:13.005Z,81.14
2023-02-06T19:12:40.644Z,81.39
2023-02-06T19:15:09.134Z,81.93
2023-02-06T19:17:36.649Z,82.54
2023-02-06T19:20:08.469Z,82.07
2023-02-06T19:22:36.416Z,81.59
2023-02-06T19:25:05.917Z,82.12
2023-02-06T19:27:33.305Z,81.03
2023-02-06T19:30:00.754Z,81.78
2023-02-06T19:32:29.115Z,81.51
2023-02-06T19:34:57.814Z,81.78
2023-02-06T19:37:26.546Z,82.70
2023-02-06T19:39:54.012Z,82.13
2023-02-06T19:42:21.474Z,82.49
2023-02-06T19:44:52.588Z,82.77
2023-02-06T19:47:19.990Z,82.68
2023-02-06T19:49:50.500Z,82.54
2023-02-06T19:52:18.127Z,83.04
2023-02-06T19:54:47.739Z,82.87
2023-02-06T19:57:15.950Z,82.82
2023-02-06T19:59:43.420Z,82.60
2023-02-06T20:02:15.413Z,81.68
2023-02-06T20:04:45.113Z,82.59
2023-02-06T20:07:12.798Z,82.12
2023-02-06T20:09:41.910Z,82.24
2023-02-06T20:12:12.388Z,82.68
2023-02-06T20:14:40.000Z,82.30
2023-02-06T20:17:07.453Z,81.37
2023-02-06T20:19:34.886Z,81.21
2023-02-06T20:22:03.080Z,81.09
2023-02-06T20:24:32.685Z,81.89
2023-02-06T20:27:02.477Z,82.46
2023-02-06T20:29:34.152Z,82.40
2023-02-06T20:32:01.943Z,83.15
2023-02-06T20:34:29.930Z,82.27
2023-02-06T20:36:57.431Z,81.75
2023-02-06T20:39:26.227Z,82.02
2023-02-06T20:41:54.144Z,82.28
2023-02-06T20:44:22.391Z,81.33
2023-02-06T20:46:51.273Z,81.43
2023-02-06T20:49:20.506Z,81.73
2023-02-06T20:51:49.146Z,81.84
2023-02-06T20:54:17.031Z,81.57
2023-02-06T20:56:44.582Z,82.82
2023-02-06T20:59:14.089Z,82.43
2023-02-06T21:01:42.033Z,82.92
2023-02-06T21:04:13.378Z,82.16
2023-02-06T21:06:41.123Z,82.82
2023-02-06T21:09:09.877Z,83.11
2023-02-06T21:11:41.925Z,82.47
2023-02-06T21:14:10.185Z,82.98
2023-02-06T21:16:38.704Z,81.71
2023-02-06T21:19:08.243Z,81.72
2023-02-06T21:21:38.043Z,80.72
2023-02-06T21:24:06.297Z,82.08
2023-02-06T21:26:34.408Z,82.66
2023-02-06T21:29:03.736Z,83.34
2023-02-06T21:31:36.867Z,82.31
2023-02-06T21:34:09.018Z,82.30
2023-02-06T21:36:39.583Z,83.70
2023-02-06T21:39:10.839Z,84.90
2023-02-06T21:41:38.421Z,83.33
2023-02-06T21:44:06.267Z,82.61
2023-02-06T21:46:34.454Z,82.58
2023-02-06T21:49:01.977Z,83.17
2023-02-06T21:51:29.643Z,83.02
2023-02-06T21:53:58.794Z,83.49
2023-02-06T21:56:28.563Z,82.46
2023-02-06T21:58:56.446Z,88.68
2023-02-06T22:01:26.899Z,88.03
2023-02-06T22:03:55.239Z,83.53
2023-02-06T22:06:22.640Z,87.66
2023-02-06T22:08:52.805Z,89.50
2023-02-06T22:11:24.002Z,90.52
2023-02-06T22:13:53.967Z,91.25
2023-02-06T22:16:23.412Z,93.09
2023-02-06T22:18:53.628Z,92.31
2023-02-06T22:21:25.211Z,96.58
2023-02-06T22:23:53.319Z,92.42
2023-02-06T22:26:22.331Z,88.22
2023-02-06T22:28:50.435Z,90.99
2023-02-06T22:31:20.750Z,90.30
2023-02-06T22:33:50.777Z,85.02
2023-02-06T22:36:20.256Z,85.54
2023-02-06T22:38:49.042Z,85.84
2023-02-06T22:41:17.866Z,82.82
2023-02-06T22:43:47.271Z,82.48
2023-02-06T22:46:19.982Z,81.52
2023-02-06T22:48:48.076Z,81.74
2023-02-06T22:51:15.922Z,81.23
2023-02-06T22:53:44.561Z,82.10
2023-02-06T22:56:31.200Z,82.57
2023-02-06T22:59:03.177Z,82.69
2023-02-06T23:01:33.161Z,82.50
2023-02-06T23:04:04.953Z,82.24
2023-02-06T23:06:34.087Z,81.58
2023-02-06T23:09:04.100Z,81.99
2023-02-06T23:11:32.424Z,83.42
2023-02-06T23:14:03.746Z,82.19
2023-02-06T23:16:33.027Z,81.15
2023-02-06T23:19:04.384Z,81.15
2023-02-06T23:21:33.768Z,81.78
2023-02-06T23:24:01.622Z,81.91
2023-02-06T23:26:29.706Z,82.45
2023-02-06T23:28:58.154Z,82.39
2023-02-06T23:31:28.384Z,81.76
2023-02-06T23:33:56.042Z,81.53
2023-02-06T23:36:26.578Z,81.67
2023-02-06T23:38:54.719Z,82.33
2023-02-06T23:41:24.442Z,82.76
2023-02-06T23:43:52.993Z,82.49
2023-02-06T23:46:27.230Z,82.13
2023-02-06T23:48:55.377Z,81.87
2023-02-06T23:51:24.111Z,82.29
2023-02-06T23:53:52.391Z,81.92
2023-02-06T23:56:23.257Z,81.59
2023-02-06T23:58:51.166Z,82.05
